Terminal Aerodrome Forecast
Issued by NWS

Home | Current Version | Previous Version | Graphics & Text | Print | Product List | Glossary On
Versions: 1 2 3 4 5 6 7 8 9 10 11 12 13 14 15 16 17 18 19 20 21
000
FTUS42 KMHX 171138
TAFOAJ
TAF
KOAJ 171138Z 1712/1812 00000KT P6SM SCT007 BKN100
     FM171300 VRB04KT P6SM SCT007 BKN020
     FM171800 22007KT P6SM SCT015 BKN080
     FM180600 23009KT P6SM VCSH SCT030 BKN060 WS020/25040KT
      AMD LTD TO CLD VIS AND WIND=

USA.gov is the U.S. government's official web portal to all federal, state and local government web resources and services.